Aeroboteco Virtual Airlines! Uma nuvem a frente.



 INFORMAÇÕES METEOROLÓGICAS
METAR FOR LEVX
ADDS - METARS form results

(0059 UTC 20 March 2019)
Data provider http://aviationweather.gov/metar/data/
 
METAR text: LEVX 200030Z 00000KT CAVOK 08/04 Q1028 NOSIG
Conditions at: LEVX (VIGO/PEINADOR , ES) observed 0030 UTC 20 March 2019
Temperature: 8.0°C (46°F)
Dewpoint: 4.0°C (39°F) [RH = 76%]
Pressure (altimeter): 30.35 inches Hg (1028.0 mb)
Winds: calm
Visibility: 6 or more miles (10+ km)
Ceiling: ceiling and visibility are OK
Clouds: unknown
Weather: no significant weather observed at this time

METAR text: LEVX 200000Z VRB01KT CAVOK 09/04 Q1028 NOSIG
Conditions at: LEVX (VIGO/PEINADOR , ES) observed 0000 UTC 20 March 2019
Temperature: 9.0°C (48°F)
Dewpoint: 4.0°C (39°F) [RH = 71%]
Pressure (altimeter): 30.35 inches Hg (1028.0 mb)
Winds: variable direction winds at 1 MPH (1 knots; 0.5 m/s)
Visibility: 6 or more miles (10+ km)
Ceiling: ceiling and visibility are OK
Clouds: unknown
Weather: no significant weather observed at this time

Forecast for: LEVX (VIGO/PEINADOR , ES)
Text: TAF LEVX 192300Z 2000/2024 VRB04KT CAVOK TX17/2014Z TN06/2007Z
Forecast period: 0000 UTC 20 March 2019 to 0000 UTC 21 March 2019
Forecast type: FROM: standard forecast or significant change
Winds: variable direction winds at 5 MPH (4 knots; 2.1 m/s)
Visibility: 6 or more miles 10+ km)
Ceiling: unknown
Clouds: missing
Weather: no significant weather forecast for this period
Text: TEMPO 2013/2019 27010KT
Forecast period: 1300 to 1900 UTC 20 March 2019
Forecast type: TEMPORARY: The following changes expected for less than half the time period
Winds: from the W (270 degrees) at 12 MPH (10 knots; 5.1 m/s)
Visibility: missing
Ceiling: unknown
Clouds: missing
Weather: no significant weather forecast for this period

 MAPA DO AEROPORTO

 INFORMAÇÕES DA PISTA
Pista 02 Tamanho da pista 7874 ft Largura da pista 148 ft
Elevação da pista 855 ft Ranhura da pista 0 ft Proa da pista 11
Pista 20 Tamanho da pista 7874 ft Largura da pista 148 ft
Elevação da pista 829 ft Ranhura da pista 0 ft Proa da pista 191

 FREQUÊNCIAS DO AEROPORTO
Tipo APP Nome SANTIAGO A Frequência 120.2 MHZ
Tipo GND Nome GND Frequência 121.7 MHZ
Tipo TWR Nome TWR Frequência 118.45 MHZ

 AUXÍLIOS DE NAVEGAÇÃO PRÓXIMOS AO AEROPORTO
Tipo VOR-DME Nome Vigo Frequência 113600 KHZ
Tipo NDB Nome Vigo Frequência 345 KHZ
Tipo NDB Nome Vigo Frequência 433 KHZ